sensor_id;sensor_type;location;lat;lon;timestamp;P1;durP1;ratioP1;P2;durP2;ratioP2
35364;SDS011;21464;48.112;11.530;2022-09-14T00:00:23;5.18;;;4.57;;
35364;SDS011;21464;48.112;11.530;2022-09-14T00:02:49;4.20;;;3.80;;
35364;SDS011;21464;48.112;11.530;2022-09-14T00:05:15;4.50;;;4.10;;
35364;SDS011;21464;48.112;11.530;2022-09-14T00:07:40;4.80;;;3.70;;
35364;SDS011;21464;48.112;11.530;2022-09-14T00:10:06;3.95;;;3.63;;
35364;SDS011;21464;48.112;11.530;2022-09-14T00:12:32;4.03;;;3.60;;
35364;SDS011;21464;48.112;11.530;2022-09-14T00:14:58;4.13;;;3.38;;
35364;SDS011;21464;48.112;11.530;2022-09-14T00:17:24;3.85;;;3.55;;
35364;SDS011;21464;48.112;11.530;2022-09-14T00:19:50;3.90;;;3.50;;
35364;SDS011;21464;48.112;11.530;2022-09-14T00:22:18;4.50;;;3.92;;
35364;SDS011;21464;48.112;11.530;2022-09-14T00:24:44;4.28;;;3.72;;
35364;SDS011;21464;48.112;11.530;2022-09-14T00:27:10;4.18;;;3.38;;
35364;SDS011;21464;48.112;11.530;2022-09-14T00:29:36;4.15;;;3.45;;
35364;SDS011;21464;48.112;11.530;2022-09-14T00:32:03;3.85;;;3.50;;
35364;SDS011;21464;48.112;11.530;2022-09-14T00:34:29;3.53;;;3.22;;
35364;SDS011;21464;48.112;11.530;2022-09-14T00:36:55;3.60;;;3.30;;
35364;SDS011;21464;48.112;11.530;2022-09-14T00:39:21;4.60;;;3.80;;
35364;SDS011;21464;48.112;11.530;2022-09-14T00:41:48;5.13;;;4.38;;
35364;SDS011;21464;48.112;11.530;2022-09-14T00:46:48;3.30;;;3.00;;
35364;SDS011;21464;48.112;11.530;2022-09-14T00:51:45;4.05;;;3.63;;
35364;SDS011;21464;48.112;11.530;2022-09-14T00:54:12;4.10;;;3.42;;
35364;SDS011;21464;48.112;11.530;2022-09-14T00:56:38;3.50;;;3.30;;
35364;SDS011;21464;48.112;11.530;2022-09-14T00:59:05;6.07;;;5.30;;
35364;SDS011;21464;48.112;11.530;2022-09-14T01:01:33;5.45;;;4.95;;
35364;SDS011;21464;48.112;11.530;2022-09-14T01:03:59;4.57;;;4.25;;
35364;SDS011;21464;48.112;11.530;2022-09-14T01:14:02;3.35;;;3.03;;
35364;SDS011;21464;48.112;11.530;2022-09-14T01:19:25;3.60;;;3.20;;
35364;SDS011;21464;48.112;11.530;2022-09-14T01:21:55;4.78;;;3.53;;
35364;SDS011;21464;48.112;11.530;2022-09-14T01:29:31;3.22;;;3.03;;
35364;SDS011;21464;48.112;11.530;2022-09-14T01:34:35;6.10;;;3.33;;
35364;SDS011;21464;48.112;11.530;2022-09-14T01:37:04;4.13;;;3.00;;
35364;SDS011;21464;48.112;11.530;2022-09-14T01:39:31;3.67;;;3.38;;
35364;SDS011;21464;48.112;11.530;2022-09-14T01:41:59;3.05;;;2.85;;
35364;SDS011;21464;48.112;11.530;2022-09-14T01:44:27;3.90;;;3.45;;
35364;SDS011;21464;48.112;11.530;2022-09-14T01:46:56;3.70;;;3.38;;
35364;SDS011;21464;48.112;11.530;2022-09-14T01:49:33;4.35;;;3.50;;
35364;SDS011;21464;48.112;11.530;2022-09-14T01:52:03;4.22;;;3.83;;
35364;SDS011;21464;48.112;11.530;2022-09-14T01:54:31;4.43;;;3.97;;
35364;SDS011;21464;48.112;11.530;2022-09-14T01:57:07;3.78;;;3.42;;
35364;SDS011;21464;48.112;11.530;2022-09-14T01:59:38;3.95;;;3.20;;
35364;SDS011;21464;48.112;11.530;2022-09-14T02:02:13;3.35;;;3.05;;
35364;SDS011;21464;48.112;11.530;2022-09-14T02:07:35;2.95;;;2.75;;
35364;SDS011;21464;48.112;11.530;2022-09-14T02:10:03;2.92;;;2.42;;
35364;SDS011;21464;48.112;11.530;2022-09-14T02:12:29;3.33;;;2.50;;
35364;SDS011;21464;48.112;11.530;2022-09-14T02:14:55;3.50;;;2.60;;
35364;SDS011;21464;48.112;11.530;2022-09-14T02:17:21;3.22;;;2.42;;
35364;SDS011;21464;48.112;11.530;2022-09-14T02:19:49;3.38;;;2.35;;
35364;SDS011;21464;48.112;11.530;2022-09-14T02:22:16;2.30;;;2.10;;
35364;SDS011;21464;48.112;11.530;2022-09-14T02:24:42;4.07;;;2.30;;
35364;SDS011;21464;48.112;11.530;2022-09-14T02:27:08;2.33;;;2.17;;
35364;SDS011;21464;48.112;11.530;2022-09-14T02:29:34;2.63;;;2.25;;
35364;SDS011;21464;48.112;11.530;2022-09-14T02:44:53;1.73;;;1.63;;
35364;SDS011;21464;48.112;11.530;2022-09-14T02:47:21;4.10;;;2.17;;
35364;SDS011;21464;48.112;11.530;2022-09-14T02:49:54;2.50;;;1.75;;
35364;SDS011;21464;48.112;11.530;2022-09-14T02:52:28;3.08;;;2.22;;
35364;SDS011;21464;48.112;11.530;2022-09-14T02:55:01;2.40;;;2.20;;
35364;SDS011;21464;48.112;11.530;2022-09-14T02:57:27;2.30;;;2.10;;
35364;SDS011;21464;48.112;11.530;2022-09-14T02:59:53;2.13;;;1.90;;
35364;SDS011;21464;48.112;11.530;2022-09-14T03:02:20;2.92;;;1.80;;
35364;SDS011;21464;48.112;11.530;2022-09-14T03:04:45;2.90;;;1.90;;
35364;SDS011;21464;48.112;11.530;2022-09-14T03:07:11;2.90;;;2.30;;
35364;SDS011;21464;48.112;11.530;2022-09-14T03:09:37;3.60;;;2.75;;
35364;SDS011;21464;48.112;11.530;2022-09-14T03:12:03;3.00;;;2.70;;
35364;SDS011;21464;48.112;11.530;2022-09-14T03:14:29;2.45;;;2.20;;
35364;SDS011;21464;48.112;11.530;2022-09-14T03:16:55;2.30;;;1.92;;
35364;SDS011;21464;48.112;11.530;2022-09-14T03:19:21;3.13;;;2.03;;
35364;SDS011;21464;48.112;11.530;2022-09-14T03:21:47;2.38;;;2.13;;
35364;SDS011;21464;48.112;11.530;2022-09-14T03:24:12;2.47;;;1.90;;
35364;SDS011;21464;48.112;11.530;2022-09-14T03:26:38;2.00;;;1.90;;
35364;SDS011;21464;48.112;11.530;2022-09-14T03:29:05;2.38;;;2.00;;
35364;SDS011;21464;48.112;11.530;2022-09-14T03:31:31;2.13;;;1.70;;
35364;SDS011;21464;48.112;11.530;2022-09-14T03:33:58;2.53;;;1.80;;
35364;SDS011;21464;48.112;11.530;2022-09-14T03:36:25;2.28;;;2.10;;
35364;SDS011;21464;48.112;11.530;2022-09-14T03:38:51;2.08;;;1.92;;
35364;SDS011;21464;48.112;11.530;2022-09-14T03:41:18;3.28;;;1.70;;
35364;SDS011;21464;48.112;11.530;2022-09-14T03:43:44;2.33;;;1.80;;
35364;SDS011;21464;48.112;11.530;2022-09-14T03:46:12;2.35;;;1.88;;
35364;SDS011;21464;48.112;11.530;2022-09-14T03:48:39;2.60;;;2.40;;
35364;SDS011;21464;48.112;11.530;2022-09-14T03:51:06;2.30;;;2.10;;
35364;SDS011;21464;48.112;11.530;2022-09-14T03:53:32;2.40;;;2.17;;
35364;SDS011;21464;48.112;11.530;2022-09-14T03:55:58;3.92;;;1.90;;
35364;SDS011;21464;48.112;11.530;2022-09-14T03:58:24;2.17;;;2.08;;
35364;SDS011;21464;48.112;11.530;2022-09-14T04:00:50;4.97;;;2.38;;
35364;SDS011;21464;48.112;11.530;2022-09-14T04:03:16;2.08;;;1.85;;
35364;SDS011;21464;48.112;11.530;2022-09-14T04:05:43;2.03;;;1.90;;
35364;SDS011;21464;48.112;11.530;2022-09-14T04:08:10;2.03;;;1.83;;
35364;SDS011;21464;48.112;11.530;2022-09-14T04:10:37;2.10;;;1.90;;
35364;SDS011;21464;48.112;11.530;2022-09-14T04:13:03;2.00;;;1.90;;
35364;SDS011;21464;48.112;11.530;2022-09-14T04:15:29;3.33;;;1.95;;
35364;SDS011;21464;48.112;11.530;2022-09-14T04:17:55;2.58;;;2.15;;
35364;SDS011;21464;48.112;11.530;2022-09-14T04:20:22;1.85;;;1.75;;
35364;SDS011;21464;48.112;11.530;2022-09-14T04:22:47;2.13;;;2.03;;
35364;SDS011;21464;48.112;11.530;2022-09-14T04:25:13;2.42;;;1.60;;
35364;SDS011;21464;48.112;11.530;2022-09-14T04:27:39;2.10;;;1.90;;
35364;SDS011;21464;48.112;11.530;2022-09-14T04:30:05;1.85;;;1.75;;
35364;SDS011;21464;48.112;11.530;2022-09-14T04:32:31;1.67;;;1.58;;
35364;SDS011;21464;48.112;11.530;2022-09-14T04:34:57;1.95;;;1.83;;
35364;SDS011;21464;48.112;11.530;2022-09-14T04:37:23;2.47;;;1.95;;
35364;SDS011;21464;48.112;11.530;2022-09-14T04:39:49;1.80;;;1.67;;
35364;SDS011;21464;48.112;11.530;2022-09-14T04:42:14;2.47;;;1.60;;
35364;SDS011;21464;48.112;11.530;2022-09-14T04:44:40;1.80;;;1.70;;
35364;SDS011;21464;48.112;11.530;2022-09-14T04:47:06;2.00;;;1.90;;
35364;SDS011;21464;48.112;11.530;2022-09-14T04:49:32;1.80;;;1.65;;
35364;SDS011;21464;48.112;11.530;2022-09-14T04:51:58;4.40;;;1.80;;
35364;SDS011;21464;48.112;11.530;2022-09-14T04:54:24;2.15;;;1.95;;
35364;SDS011;21464;48.112;11.530;2022-09-14T04:56:50;2.58;;;1.90;;
35364;SDS011;21464;48.112;11.530;2022-09-14T04:59:15;3.88;;;1.98;;
35364;SDS011;21464;48.112;11.530;2022-09-14T05:01:42;4.22;;;2.22;;
35364;SDS011;21464;48.112;11.530;2022-09-14T05:04:09;3.30;;;2.60;;
35364;SDS011;21464;48.112;11.530;2022-09-14T05:06:36;2.00;;;1.90;;
35364;SDS011;21464;48.112;11.530;2022-09-14T05:09:04;3.30;;;2.33;;
35364;SDS011;21464;48.112;11.530;2022-09-14T05:11:31;2.58;;;2.38;;
35364;SDS011;21464;48.112;11.530;2022-09-14T05:13:58;2.80;;;1.70;;
35364;SDS011;21464;48.112;11.530;2022-09-14T05:16:28;4.53;;;1.92;;
35364;SDS011;21464;48.112;11.530;2022-09-14T05:18:55;2.85;;;2.10;;
35364;SDS011;21464;48.112;11.530;2022-09-14T05:21:22;3.33;;;2.08;;
35364;SDS011;21464;48.112;11.530;2022-09-14T05:23:52;1.90;;;1.80;;
35364;SDS011;21464;48.112;11.530;2022-09-14T05:26:18;2.22;;;2.00;;
35364;SDS011;21464;48.112;11.530;2022-09-14T05:28:47;1.75;;;1.65;;
35364;SDS011;21464;48.112;11.530;2022-09-14T05:31:13;3.65;;;2.38;;
35364;SDS011;21464;48.112;11.530;2022-09-14T05:33:41;2.63;;;1.95;;
35364;SDS011;21464;48.112;11.530;2022-09-14T05:36:08;4.70;;;2.33;;
35364;SDS011;21464;48.112;11.530;2022-09-14T05:38:34;3.38;;;1.92;;
35364;SDS011;21464;48.112;11.530;2022-09-14T05:41:00;2.45;;;1.77;;
35364;SDS011;21464;48.112;11.530;2022-09-14T05:43:27;2.25;;;2.15;;
35364;SDS011;21464;48.112;11.530;2022-09-14T05:45:53;2.38;;;1.95;;
35364;SDS011;21464;48.112;11.530;2022-09-14T05:48:19;4.97;;;2.20;;
35364;SDS011;21464;48.112;11.530;2022-09-14T05:50:45;4.18;;;2.50;;
35364;SDS011;21464;48.112;11.530;2022-09-14T05:53:11;4.07;;;2.05;;
35364;SDS011;21464;48.112;11.530;2022-09-14T05:55:36;2.80;;;2.00;;
35364;SDS011;21464;48.112;11.530;2022-09-14T05:58:02;4.53;;;1.92;;
35364;SDS011;21464;48.112;11.530;2022-09-14T06:00:29;2.33;;;1.80;;
35364;SDS011;21464;48.112;11.530;2022-09-14T06:02:55;3.85;;;2.05;;
35364;SDS011;21464;48.112;11.530;2022-09-14T06:05:21;3.47;;;1.85;;
35364;SDS011;21464;48.112;11.530;2022-09-14T06:07:50;3.25;;;2.15;;
35364;SDS011;21464;48.112;11.530;2022-09-14T06:10:16;4.05;;;2.30;;
35364;SDS011;21464;48.112;11.530;2022-09-14T06:12:42;3.28;;;1.90;;
35364;SDS011;21464;48.112;11.530;2022-09-14T06:15:08;3.33;;;2.05;;
35364;SDS011;21464;48.112;11.530;2022-09-14T06:17:35;4.68;;;2.13;;
35364;SDS011;21464;48.112;11.530;2022-09-14T06:20:02;3.03;;;1.92;;
35364;SDS011;21464;48.112;11.530;2022-09-14T06:22:29;2.50;;;2.15;;
35364;SDS011;21464;48.112;11.530;2022-09-14T06:24:55;5.03;;;2.88;;
35364;SDS011;21464;48.112;11.530;2022-09-14T06:27:21;4.38;;;2.47;;
35364;SDS011;21464;48.112;11.530;2022-09-14T06:29:47;3.45;;;2.30;;
35364;SDS011;21464;48.112;11.530;2022-09-14T06:32:17;3.05;;;1.85;;
35364;SDS011;21464;48.112;11.530;2022-09-14T06:34:43;2.10;;;2.00;;
35364;SDS011;21464;48.112;11.530;2022-09-14T06:37:09;3.33;;;2.22;;
35364;SDS011;21464;48.112;11.530;2022-09-14T06:39:35;4.22;;;2.53;;
35364;SDS011;21464;48.112;11.530;2022-09-14T06:42:01;3.20;;;1.77;;
35364;SDS011;21464;48.112;11.530;2022-09-14T06:44:27;3.03;;;1.80;;
35364;SDS011;21464;48.112;11.530;2022-09-14T06:46:53;3.90;;;2.00;;
35364;SDS011;21464;48.112;11.530;2022-09-14T06:49:19;2.65;;;2.30;;
35364;SDS011;21464;48.112;11.530;2022-09-14T06:51:47;5.25;;;2.60;;
35364;SDS011;21464;48.112;11.530;2022-09-14T06:54:14;2.83;;;1.95;;
35364;SDS011;21464;48.112;11.530;2022-09-14T06:56:40;3.17;;;2.00;;
35364;SDS011;21464;48.112;11.530;2022-09-14T06:59:07;4.18;;;2.17;;
35364;SDS011;21464;48.112;11.530;2022-09-14T07:01:33;3.17;;;2.20;;
35364;SDS011;21464;48.112;11.530;2022-09-14T07:04:00;5.35;;;2.10;;
35364;SDS011;21464;48.112;11.530;2022-09-14T07:06:59;2.50;;;2.28;;
35364;SDS011;21464;48.112;11.530;2022-09-14T07:09:18;4.57;;;2.92;;
35364;SDS011;21464;48.112;11.530;2022-09-14T07:11:44;5.15;;;2.28;;
35364;SDS011;21464;48.112;11.530;2022-09-14T07:14:10;3.80;;;2.10;;
35364;SDS011;21464;48.112;11.530;2022-09-14T07:16:37;7.22;;;3.28;;
35364;SDS011;21464;48.112;11.530;2022-09-14T07:19:04;2.92;;;2.38;;
35364;SDS011;21464;48.112;11.530;2022-09-14T07:21:31;1.98;;;1.88;;
35364;SDS011;21464;48.112;11.530;2022-09-14T07:23:57;3.78;;;2.10;;
35364;SDS011;21464;48.112;11.530;2022-09-14T07:26:24;5.85;;;2.28;;
35364;SDS011;21464;48.112;11.530;2022-09-14T07:28:55;6.38;;;4.80;;
35364;SDS011;21464;48.112;11.530;2022-09-14T07:31:23;5.45;;;3.30;;
35364;SDS011;21464;48.112;11.530;2022-09-14T07:33:53;3.72;;;2.80;;
35364;SDS011;21464;48.112;11.530;2022-09-14T07:36:19;4.95;;;2.40;;
35364;SDS011;21464;48.112;11.530;2022-09-14T07:38:46;3.78;;;2.42;;
35364;SDS011;21464;48.112;11.530;2022-09-14T07:41:11;3.33;;;2.33;;
35364;SDS011;21464;48.112;11.530;2022-09-14T07:43:37;2.78;;;2.38;;
35364;SDS011;21464;48.112;11.530;2022-09-14T07:46:04;2.67;;;2.10;;
35364;SDS011;21464;48.112;11.530;2022-09-14T07:48:31;4.28;;;2.80;;
35364;SDS011;21464;48.112;11.530;2022-09-14T07:50:58;4.50;;;2.40;;
35364;SDS011;21464;48.112;11.530;2022-09-14T07:53:24;2.80;;;1.90;;
35364;SDS011;21464;48.112;11.530;2022-09-14T07:55:50;2.92;;;1.63;;
35364;SDS011;21464;48.112;11.530;2022-09-14T07:58:16;5.25;;;1.95;;
35364;SDS011;21464;48.112;11.530;2022-09-14T08:00:42;3.20;;;1.80;;
35364;SDS011;21464;48.112;11.530;2022-09-14T08:03:07;3.40;;;1.67;;
35364;SDS011;21464;48.112;11.530;2022-09-14T08:05:33;3.67;;;2.00;;
35364;SDS011;21464;48.112;11.530;2022-09-14T08:07:59;2.88;;;2.28;;
35364;SDS011;21464;48.112;11.530;2022-09-14T08:10:25;3.15;;;2.67;;
35364;SDS011;21464;48.112;11.530;2022-09-14T08:12:52;3.65;;;2.28;;
35364;SDS011;21464;48.112;11.530;2022-09-14T08:15:19;2.13;;;1.60;;
35364;SDS011;21464;48.112;11.530;2022-09-14T08:17:45;1.95;;;1.40;;
35364;SDS011;21464;48.112;11.530;2022-09-14T08:20:11;2.72;;;1.60;;
35364;SDS011;21464;48.112;11.530;2022-09-14T08:22:37;2.22;;;1.77;;
35364;SDS011;21464;48.112;11.530;2022-09-14T08:25:03;2.63;;;1.85;;
35364;SDS011;21464;48.112;11.530;2022-09-14T08:27:29;2.28;;;1.42;;
35364;SDS011;21464;48.112;11.530;2022-09-14T08:29:55;3.72;;;1.95;;
35364;SDS011;21464;48.112;11.530;2022-09-14T08:32:21;3.03;;;1.50;;
35364;SDS011;21464;48.112;11.530;2022-09-14T08:34:47;3.25;;;1.67;;
35364;SDS011;21464;48.112;11.530;2022-09-14T08:37:13;5.50;;;1.70;;
35364;SDS011;21464;48.112;11.530;2022-09-14T08:39:39;2.53;;;1.40;;
35364;SDS011;21464;48.112;11.530;2022-09-14T08:42:07;3.67;;;1.70;;
35364;SDS011;21464;48.112;11.530;2022-09-14T08:44:43;4.03;;;1.90;;
35364;SDS011;21464;48.112;11.530;2022-09-14T08:47:16;2.03;;;1.60;;
35364;SDS011;21464;48.112;11.530;2022-09-14T08:49:58;2.80;;;1.90;;
35364;SDS011;21464;48.112;11.530;2022-09-14T08:52:27;3.58;;;1.63;;
35364;SDS011;21464;48.112;11.530;2022-09-14T08:54:57;3.17;;;1.60;;
35364;SDS011;21464;48.112;11.530;2022-09-14T08:57:29;3.15;;;1.58;;
35364;SDS011;21464;48.112;11.530;2022-09-14T09:00:02;3.10;;;1.60;;
35364;SDS011;21464;48.112;11.530;2022-09-14T09:05:18;4.30;;;1.83;;
35364;SDS011;21464;48.112;11.530;2022-09-14T09:10:18;2.17;;;1.75;;
35364;SDS011;21464;48.112;11.530;2022-09-14T09:12:46;6.10;;;1.75;;
35364;SDS011;21464;48.112;11.530;2022-09-14T09:15:35;4.38;;;2.50;;
35364;SDS011;21464;48.112;11.530;2022-09-14T09:18:00;2.42;;;1.75;;
35364;SDS011;21464;48.112;11.530;2022-09-14T09:20:28;2.08;;;1.83;;
35364;SDS011;21464;48.112;11.530;2022-09-14T09:23:14;2.67;;;1.80;;
35364;SDS011;21464;48.112;11.530;2022-09-14T09:28:19;2.80;;;1.60;;
35364;SDS011;21464;48.112;11.530;2022-09-14T09:30:45;3.30;;;1.80;;
35364;SDS011;21464;48.112;11.530;2022-09-14T09:33:15;5.50;;;1.70;;
35364;SDS011;21464;48.112;11.530;2022-09-14T09:36:00;2.72;;;1.73;;
35364;SDS011;21464;48.112;11.530;2022-09-14T09:38:29;2.45;;;1.70;;
35364;SDS011;21464;48.112;11.530;2022-09-14T09:40:57;2.95;;;1.58;;
35364;SDS011;21464;48.112;11.530;2022-09-14T09:43:24;3.13;;;1.98;;
35364;SDS011;21464;48.112;11.530;2022-09-14T09:48:17;4.28;;;2.00;;
35364;SDS011;21464;48.112;11.530;2022-09-14T09:50:52;2.45;;;1.83;;
35364;SDS011;21464;48.112;11.530;2022-09-14T09:53:20;3.20;;;1.95;;
35364;SDS011;21464;48.112;11.530;2022-09-14T09:55:47;3.58;;;1.88;;
35364;SDS011;21464;48.112;11.530;2022-09-14T09:58:21;2.08;;;1.67;;
35364;SDS011;21464;48.112;11.530;2022-09-14T10:00:53;2.97;;;1.73;;
35364;SDS011;21464;48.112;11.530;2022-09-14T10:03:25;3.33;;;1.77;;
35364;SDS011;21464;48.112;11.530;2022-09-14T10:06:03;3.08;;;1.75;;
35364;SDS011;21464;48.112;11.530;2022-09-14T10:08:29;3.75;;;1.98;;
35364;SDS011;21464;48.112;11.530;2022-09-14T10:11:00;3.20;;;2.03;;
35364;SDS011;21464;48.112;11.530;2022-09-14T10:13:36;5.93;;;2.53;;
35364;SDS011;21464;48.112;11.530;2022-09-14T10:16:06;5.68;;;1.88;;
35364;SDS011;21464;48.112;11.530;2022-09-14T10:18:32;2.63;;;1.77;;
35364;SDS011;21464;48.112;11.530;2022-09-14T10:23:26;2.28;;;1.90;;
35364;SDS011;21464;48.112;11.530;2022-09-14T10:28:41;3.25;;;2.00;;
35364;SDS011;21464;48.112;11.530;2022-09-14T10:33:40;2.92;;;1.70;;
35364;SDS011;21464;48.112;11.530;2022-09-14T10:38:37;3.58;;;2.08;;
35364;SDS011;21464;48.112;11.530;2022-09-14T10:46:21;4.68;;;2.53;;
35364;SDS011;21464;48.112;11.530;2022-09-14T10:48:59;6.13;;;1.95;;
35364;SDS011;21464;48.112;11.530;2022-09-14T10:54:07;3.47;;;2.10;;
35364;SDS011;21464;48.112;11.530;2022-09-14T11:14:44;3.17;;;1.70;;
35364;SDS011;21464;48.112;11.530;2022-09-14T11:24:53;3.70;;;1.80;;
35364;SDS011;21464;48.112;11.530;2022-09-14T11:27:23;4.22;;;1.95;;
35364;SDS011;21464;48.112;11.530;2022-09-14T11:29:52;4.45;;;2.10;;
35364;SDS011;21464;48.112;11.530;2022-09-14T11:32:20;2.25;;;1.83;;
35364;SDS011;21464;48.112;11.530;2022-09-14T11:37:44;3.15;;;1.77;;
35364;SDS011;21464;48.112;11.530;2022-09-14T11:42:39;5.60;;;1.85;;
35364;SDS011;21464;48.112;11.530;2022-09-14T11:45:19;3.75;;;2.03;;
35364;SDS011;21464;48.112;11.530;2022-09-14T11:47:49;5.82;;;1.90;;
35364;SDS011;21464;48.112;11.530;2022-09-14T11:50:24;2.53;;;1.95;;
35364;SDS011;21464;48.112;11.530;2022-09-14T11:53:00;4.13;;;1.80;;
35364;SDS011;21464;48.112;11.530;2022-09-14T11:55:27;2.40;;;1.85;;
35364;SDS011;21464;48.112;11.530;2022-09-14T11:57:53;3.58;;;1.92;;
35364;SDS011;21464;48.112;11.530;2022-09-14T12:12:48;2.72;;;1.83;;
35364;SDS011;21464;48.112;11.530;2022-09-14T12:15:17;2.40;;;1.67;;
35364;SDS011;21464;48.112;11.530;2022-09-14T12:17:46;3.35;;;1.67;;
35364;SDS011;21464;48.112;11.530;2022-09-14T12:22:50;4.22;;;1.80;;
35364;SDS011;21464;48.112;11.530;2022-09-14T12:25:17;4.15;;;1.85;;
35364;SDS011;21464;48.112;11.530;2022-09-14T12:27:45;2.83;;;1.65;;
35364;SDS011;21464;48.112;11.530;2022-09-14T12:32:56;2.80;;;1.83;;
35364;SDS011;21464;48.112;11.530;2022-09-14T12:51:10;4.15;;;1.80;;
35364;SDS011;21464;48.112;11.530;2022-09-14T12:53:37;2.15;;;1.70;;
35364;SDS011;21464;48.112;11.530;2022-09-14T12:56:05;3.92;;;2.10;;
35364;SDS011;21464;48.112;11.530;2022-09-14T12:58:42;3.08;;;1.73;;
35364;SDS011;21464;48.112;11.530;2022-09-14T13:06:09;3.35;;;1.90;;
35364;SDS011;21464;48.112;11.530;2022-09-14T13:08:36;4.93;;;2.00;;
35364;SDS011;21464;48.112;11.530;2022-09-14T13:11:02;2.63;;;1.70;;
35364;SDS011;21464;48.112;11.530;2022-09-14T13:13:30;3.10;;;1.80;;
35364;SDS011;21464;48.112;11.530;2022-09-14T13:15:57;1.83;;;1.73;;
35364;SDS011;21464;48.112;11.530;2022-09-14T13:18:28;6.03;;;1.88;;
35364;SDS011;21464;48.112;11.530;2022-09-14T13:21:37;3.58;;;1.95;;
35364;SDS011;21464;48.112;11.530;2022-09-14T13:23:44;3.40;;;1.83;;
35364;SDS011;21464;48.112;11.530;2022-09-14T13:28:43;3.90;;;2.40;;
35364;SDS011;21464;48.112;11.530;2022-09-14T13:31:11;3.58;;;1.92;;
35364;SDS011;21464;48.112;11.530;2022-09-14T13:33:37;1.88;;;1.73;;
35364;SDS011;21464;48.112;11.530;2022-09-14T13:36:10;2.47;;;2.03;;
35364;SDS011;21464;48.112;11.530;2022-09-14T13:38:41;3.53;;;1.95;;
35364;SDS011;21464;48.112;11.530;2022-09-14T13:41:12;2.67;;;2.20;;
35364;SDS011;21464;48.112;11.530;2022-09-14T13:43:40;2.28;;;2.08;;
35364;SDS011;21464;48.112;11.530;2022-09-14T13:46:06;2.97;;;1.88;;
35364;SDS011;21464;48.112;11.530;2022-09-14T13:48:34;3.70;;;1.88;;
35364;SDS011;21464;48.112;11.530;2022-09-14T13:51:03;3.22;;;1.90;;
35364;SDS011;21464;48.112;11.530;2022-09-14T13:53:40;2.65;;;1.90;;
35364;SDS011;21464;48.112;11.530;2022-09-14T13:58:42;2.58;;;1.70;;
35364;SDS011;21464;48.112;11.530;2022-09-14T14:01:08;4.85;;;1.70;;
35364;SDS011;21464;48.112;11.530;2022-09-14T14:03:39;2.42;;;1.65;;
35364;SDS011;21464;48.112;11.530;2022-09-14T14:06:23;3.08;;;1.50;;
35364;SDS011;21464;48.112;11.530;2022-09-14T14:08:54;2.78;;;1.88;;
35364;SDS011;21464;48.112;11.530;2022-09-14T14:11:54;4.75;;;1.60;;
35364;SDS011;21464;48.112;11.530;2022-09-14T14:16:38;5.05;;;1.80;;
35364;SDS011;21464;48.112;11.530;2022-09-14T14:19:04;3.83;;;1.90;;
35364;SDS011;21464;48.112;11.530;2022-09-14T14:21:31;3.92;;;1.70;;
35364;SDS011;21464;48.112;11.530;2022-09-14T14:26:49;2.05;;;1.67;;
35364;SDS011;21464;48.112;11.530;2022-09-14T14:29:16;6.43;;;1.75;;
35364;SDS011;21464;48.112;11.530;2022-09-14T14:31:42;5.65;;;1.58;;
35364;SDS011;21464;48.112;11.530;2022-09-14T14:34:19;3.42;;;1.85;;
35364;SDS011;21464;48.112;11.530;2022-09-14T14:36:45;2.13;;;1.73;;
35364;SDS011;21464;48.112;11.530;2022-09-14T14:39:18;2.92;;;1.70;;
35364;SDS011;21464;48.112;11.530;2022-09-14T14:41:44;4.38;;;1.95;;
35364;SDS011;21464;48.112;11.530;2022-09-14T14:44:12;3.70;;;2.10;;
35364;SDS011;21464;48.112;11.530;2022-09-14T14:46:39;3.00;;;1.70;;
35364;SDS011;21464;48.112;11.530;2022-09-14T14:49:06;3.15;;;1.73;;
35364;SDS011;21464;48.112;11.530;2022-09-14T14:51:32;4.05;;;1.65;;
35364;SDS011;21464;48.112;11.530;2022-09-14T14:53:58;5.18;;;1.92;;
35364;SDS011;21464;48.112;11.530;2022-09-14T14:56:25;3.20;;;1.73;;
35364;SDS011;21464;48.112;11.530;2022-09-14T14:58:52;3.58;;;1.70;;
35364;SDS011;21464;48.112;11.530;2022-09-14T15:01:18;4.75;;;1.75;;
35364;SDS011;21464;48.112;11.530;2022-09-14T15:03:44;3.10;;;1.60;;
35364;SDS011;21464;48.112;11.530;2022-09-14T15:06:17;3.17;;;1.60;;
35364;SDS011;21464;48.112;11.530;2022-09-14T15:08:43;2.55;;;1.63;;
35364;SDS011;21464;48.112;11.530;2022-09-14T15:11:14;2.60;;;1.63;;
35364;SDS011;21464;48.112;11.530;2022-09-14T15:13:41;4.88;;;2.00;;
35364;SDS011;21464;48.112;11.530;2022-09-14T15:16:07;2.75;;;1.67;;
35364;SDS011;21464;48.112;11.530;2022-09-14T15:18:32;3.30;;;1.80;;
35364;SDS011;21464;48.112;11.530;2022-09-14T15:20:58;4.65;;;1.70;;
35364;SDS011;21464;48.112;11.530;2022-09-14T15:23:25;2.55;;;1.60;;
35364;SDS011;21464;48.112;11.530;2022-09-14T15:25:51;5.75;;;1.50;;
35364;SDS011;21464;48.112;11.530;2022-09-14T15:28:17;3.60;;;1.50;;
35364;SDS011;21464;48.112;11.530;2022-09-14T15:30:43;2.80;;;1.90;;
35364;SDS011;21464;48.112;11.530;2022-09-14T15:33:09;2.10;;;1.90;;
35364;SDS011;21464;48.112;11.530;2022-09-14T15:35:35;2.83;;;1.70;;
35364;SDS011;21464;48.112;11.530;2022-09-14T15:38:01;2.60;;;1.60;;
35364;SDS011;21464;48.112;11.530;2022-09-14T15:40:27;2.97;;;1.70;;
35364;SDS011;21464;48.112;11.530;2022-09-14T15:42:53;1.83;;;1.50;;
35364;SDS011;21464;48.112;11.530;2022-09-14T15:45:18;4.13;;;1.90;;
35364;SDS011;21464;48.112;11.530;2022-09-14T15:47:44;3.92;;;1.88;;
35364;SDS011;21464;48.112;11.530;2022-09-14T15:50:11;2.42;;;2.00;;
35364;SDS011;21464;48.112;11.530;2022-09-14T15:52:38;5.10;;;2.50;;
35364;SDS011;21464;48.112;11.530;2022-09-14T15:55:04;4.97;;;2.70;;
35364;SDS011;21464;48.112;11.530;2022-09-14T15:57:31;2.58;;;2.38;;
35364;SDS011;21464;48.112;11.530;2022-09-14T15:59:56;3.38;;;2.33;;
35364;SDS011;21464;48.112;11.530;2022-09-14T16:02:22;5.35;;;2.60;;
35364;SDS011;21464;48.112;11.530;2022-09-14T16:04:48;3.28;;;2.38;;
35364;SDS011;21464;48.112;11.530;2022-09-14T16:07:14;5.72;;;2.95;;
35364;SDS011;21464;48.112;11.530;2022-09-14T16:09:40;4.57;;;2.38;;
35364;SDS011;21464;48.112;11.530;2022-09-14T16:12:07;3.72;;;2.55;;
35364;SDS011;21464;48.112;11.530;2022-09-14T16:14:33;3.58;;;2.40;;
35364;SDS011;21464;48.112;11.530;2022-09-14T16:16:59;2.85;;;1.92;;
35364;SDS011;21464;48.112;11.530;2022-09-14T16:19:25;2.38;;;2.17;;
35364;SDS011;21464;48.112;11.530;2022-09-14T16:21:52;4.57;;;2.22;;
35364;SDS011;21464;48.112;11.530;2022-09-14T16:24:18;2.75;;;2.10;;
35364;SDS011;21464;48.112;11.530;2022-09-14T16:26:45;3.53;;;2.38;;
35364;SDS011;21464;48.112;11.530;2022-09-14T16:29:11;2.63;;;2.22;;
35364;SDS011;21464;48.112;11.530;2022-09-14T16:31:39;3.58;;;2.30;;
35364;SDS011;21464;48.112;11.530;2022-09-14T16:34:06;3.72;;;2.65;;
35364;SDS011;21464;48.112;11.530;2022-09-14T16:36:35;4.15;;;2.92;;
35364;SDS011;21464;48.112;11.530;2022-09-14T16:39:02;6.95;;;5.00;;
35364;SDS011;21464;48.112;11.530;2022-09-14T16:41:28;6.32;;;4.60;;
35364;SDS011;21464;48.112;11.530;2022-09-14T16:43:58;3.28;;;2.67;;
35364;SDS011;21464;48.112;11.530;2022-09-14T16:46:25;4.60;;;3.05;;
35364;SDS011;21464;48.112;11.530;2022-09-14T16:48:51;2.97;;;2.53;;
35364;SDS011;21464;48.112;11.530;2022-09-14T16:51:18;3.28;;;2.67;;
35364;SDS011;21464;48.112;11.530;2022-09-14T16:53:44;5.20;;;2.75;;
35364;SDS011;21464;48.112;11.530;2022-09-14T16:56:12;3.28;;;2.25;;
35364;SDS011;21464;48.112;11.530;2022-09-14T16:58:40;4.13;;;2.75;;
35364;SDS011;21464;48.112;11.530;2022-09-14T17:01:14;4.15;;;2.30;;
35364;SDS011;21464;48.112;11.530;2022-09-14T17:03:40;3.35;;;2.40;;